CYXY

Whitehorse / Erik Nielsen International Airport

Whitehorse, , Canada
METAR CYXY 220200Z 15010KT 40SM FEW220 12/M05 A2989 RMK CI2 SLP155 DENSITY ALT 2600FT
Observed Flight Rules
Sep-22 @ 02:00 UTC (an hour ago) Visual Flight Rules
Wind Visibility Clouds
150° at 10 knots 40 miles
Temperatures Readings
Current 12°C / 54°F
Dewpoint -5°C / 23°F
Humidity 30%
Altimeter 29.89" Hg
Pressure 1015.5 hPa
Elevation 703
METAR CYXY 220200Z 15010KT 40SM FEW220 12/M05 A2989 RMK CI2 SLP155 DENSITY ALT 2600FT
Observed Flight Rules
Sep-22 @ 02:00 UTC
(an hour ago)
VFR
Wind Visibility
150° at 10 knots 40 miles
Clouds
Temperature Dewpoint
12°C / 54°F -5°C / 23°F
Humidity Altimeter Pressure
30% 29.89" Hg 1015.5 hPa